createdAt,value
2023-04-12T00:02:19.386Z,8.80
2023-04-12T00:04:46.308Z,8.80
2023-04-12T00:07:13.398Z,8.80
2023-04-12T00:09:40.213Z,8.80
2023-04-12T00:12:07.409Z,8.80
2023-04-12T00:14:34.229Z,8.80
2023-04-12T00:17:01.203Z,8.80
2023-04-12T00:19:31.055Z,8.80
2023-04-12T00:21:58.208Z,8.80
2023-04-12T00:24:26.155Z,8.80
2023-04-12T00:26:52.962Z,8.80
2023-04-12T00:29:19.797Z,8.80
2023-04-12T00:31:46.661Z,8.80
2023-04-12T00:34:13.540Z,8.80
2023-04-12T00:36:40.458Z,8.80
2023-04-12T00:39:07.263Z,8.80
2023-04-12T00:41:36.164Z,8.80
2023-04-12T00:44:03.016Z,8.90
2023-04-12T00:46:30.041Z,8.90
2023-04-12T00:48:57.653Z,8.90
2023-04-12T00:51:25.625Z,8.90
2023-04-12T00:53:53.699Z,8.90
2023-04-12T00:56:23.632Z,8.90
2023-04-12T00:58:50.528Z,8.90
2023-04-12T01:01:19.462Z,8.90
2023-04-12T01:03:46.506Z,8.90
2023-04-12T01:06:50.528Z,8.90
2023-04-12T01:09:23.711Z,8.90
2023-04-12T01:12:02.478Z,9.00
2023-04-12T01:14:49.355Z,9.00
2023-04-12T01:17:20.997Z,9.00
2023-04-12T01:20:13.532Z,9.00
2023-04-12T01:22:46.815Z,8.90
2023-04-12T01:25:52.744Z,8.90
2023-04-12T01:28:22.842Z,8.90
2023-04-12T01:30:50.956Z,8.90
2023-04-12T01:33:17.850Z,8.90
2023-04-12T01:35:44.718Z,8.90
2023-04-12T01:38:11.601Z,9.00
2023-04-12T01:40:40.746Z,8.90
2023-04-12T01:43:12.154Z,9.00
2023-04-12T01:45:39.217Z,9.00
2023-04-12T01:48:10.160Z,9.00
2023-04-12T01:50:55.648Z,9.00
2023-04-12T01:54:00.202Z,9.00
2023-04-12T01:56:28.751Z,9.00
2023-04-12T01:58:55.784Z,9.00
2023-04-12T02:01:22.738Z,9.00
2023-04-12T02:03:50.220Z,9.00
2023-04-12T02:06:20.027Z,9.00
2023-04-12T02:08:47.310Z,9.10
2023-04-12T02:11:16.903Z,9.10
2023-04-12T02:13:43.858Z,9.10
2023-04-12T02:16:11.044Z,9.10
2023-04-12T02:18:38.007Z,9.10
2023-04-12T02:21:05.079Z,9.10
2023-04-12T02:23:31.934Z,9.10
2023-04-12T02:25:58.754Z,9.10
2023-04-12T02:28:25.608Z,9.10
2023-04-12T02:30:54.041Z,9.10
2023-04-12T02:33:25.485Z,9.20
2023-04-12T02:35:52.553Z,9.20
2023-04-12T02:38:19.489Z,9.20
2023-04-12T02:40:46.296Z,9.20
2023-04-12T02:43:13.177Z,9.20
2023-04-12T02:45:39.987Z,9.30
2023-04-12T02:48:06.835Z,9.30
2023-04-12T02:50:34.080Z,9.30
2023-04-12T02:53:00.931Z,9.40
2023-04-12T02:55:27.722Z,9.40
2023-04-12T02:57:55.127Z,9.40
2023-04-12T03:00:22.066Z,9.50
2023-04-12T03:02:51.569Z,9.50
2023-04-12T03:05:18.943Z,9.50
2023-04-12T03:07:46.302Z,9.60
2023-04-12T03:10:13.327Z,9.60
2023-04-12T03:12:40.314Z,9.60
2023-04-12T03:15:07.734Z,9.60
2023-04-12T03:17:34.614Z,9.60
2023-04-12T03:20:10.013Z,9.60
2023-04-12T03:22:37.594Z,9.70
2023-04-12T03:25:05.418Z,9.60
2023-04-12T03:27:32.637Z,9.70
2023-04-12T03:29:59.484Z,9.70
2023-04-12T03:32:26.317Z,9.60
2023-04-12T03:34:53.191Z,9.60
2023-04-12T03:37:20.073Z,9.60
2023-04-12T03:39:48.347Z,9.70
2023-04-12T03:42:29.401Z,9.70
2023-04-12T03:44:59.043Z,9.70
2023-04-12T03:47:25.944Z,9.70
2023-04-12T03:50:10.202Z,9.60
2023-04-12T03:52:38.647Z,9.60
2023-04-12T03:55:07.438Z,9.60
2023-04-12T03:57:34.979Z,9.60
2023-04-12T04:00:02.484Z,9.60
2023-04-12T04:02:29.481Z,9.60
2023-04-12T04:04:56.519Z,9.60
2023-04-12T04:07:23.334Z,9.60
2023-04-12T04:09:50.381Z,9.50
2023-04-12T04:12:17.293Z,9.60
2023-04-12T04:14:44.443Z,9.50
2023-04-12T04:17:11.351Z,9.50
2023-04-12T04:19:38.589Z,9.50
2023-04-12T04:22:05.525Z,9.60
2023-04-12T04:24:34.224Z,9.50
2023-04-12T04:27:01.088Z,9.40
2023-04-12T04:29:29.354Z,9.40
2023-04-12T04:31:57.510Z,9.40
2023-04-12T04:34:25.535Z,9.30
2023-04-12T04:36:52.865Z,9.30
2023-04-12T04:39:20.082Z,9.20
2023-04-12T04:41:47.021Z,9.20
2023-04-12T04:44:14.347Z,9.20
2023-04-12T04:46:41.392Z,9.20
2023-04-12T04:49:08.354Z,9.20
2023-04-12T04:51:35.160Z,9.10
2023-04-12T04:54:02.332Z,9.10
2023-04-12T04:56:29.177Z,9.10
2023-04-12T04:58:57.232Z,9.10
2023-04-12T05:01:28.734Z,9.20
2023-04-12T05:03:56.102Z,9.20
2023-04-12T05:06:23.414Z,9.20
2023-04-12T05:08:50.291Z,9.10
2023-04-12T05:11:17.135Z,9.10
2023-04-12T05:13:45.052Z,9.10
2023-04-12T05:16:12.353Z,9.00
2023-04-12T05:18:39.245Z,9.10
2023-04-12T05:21:06.588Z,9.10
2023-04-12T05:23:37.510Z,9.00
2023-04-12T05:26:04.907Z,9.00
2023-04-12T05:28:31.855Z,9.00
2023-04-12T05:30:58.919Z,9.00
2023-04-12T05:33:25.863Z,8.90
2023-04-12T05:35:52.740Z,9.00
2023-04-12T05:38:19.648Z,9.00
2023-04-12T05:40:46.485Z,9.00
2023-04-12T05:43:13.542Z,9.00
2023-04-12T05:45:41.545Z,9.00
2023-04-12T05:48:08.625Z,9.10
2023-04-12T05:50:36.519Z,9.10
2023-04-12T05:53:03.592Z,9.10
2023-04-12T05:55:30.606Z,9.10
2023-04-12T05:57:58.688Z,9.20
2023-04-12T06:00:26.380Z,9.10
2023-04-12T06:02:53.467Z,9.20
2023-04-12T06:05:21.446Z,9.20
2023-04-12T06:07:49.156Z,9.30
2023-04-12T06:10:17.357Z,9.30
2023-04-12T06:12:46.997Z,9.30
2023-04-12T06:15:15.913Z,9.40
2023-04-12T06:17:42.889Z,9.40
2023-04-12T06:20:13.249Z,9.40
2023-04-12T06:22:40.097Z,9.40
2023-04-12T06:25:08.147Z,9.40
2023-04-12T06:27:35.183Z,9.40
2023-04-12T06:30:03.053Z,9.30
2023-04-12T06:32:29.910Z,9.30
2023-04-12T06:34:56.732Z,9.30
2023-04-12T06:37:23.572Z,9.20
2023-04-12T06:39:50.455Z,9.10
2023-04-12T06:42:18.258Z,9.20
2023-04-12T06:44:45.282Z,9.20
2023-04-12T06:47:12.303Z,9.30
2023-04-12T06:49:39.270Z,9.40
2023-04-12T06:52:06.321Z,9.60
2023-04-12T06:54:36.511Z,9.50
2023-04-12T06:57:06.702Z,9.60
2023-04-12T06:59:33.921Z,9.70
2023-04-12T07:02:02.836Z,9.70
2023-04-12T07:04:30.778Z,9.80
2023-04-12T07:06:59.730Z,9.90
2023-04-12T07:09:26.912Z,9.90
2023-04-12T07:11:53.769Z,9.90
2023-04-12T07:14:22.642Z,9.90
2023-04-12T07:16:49.638Z,9.80
2023-04-12T07:19:16.680Z,9.70
2023-04-12T07:21:44.499Z,9.80
2023-04-12T07:24:11.452Z,9.80
2023-04-12T07:26:38.289Z,9.70
2023-04-12T07:29:05.374Z,9.60
2023-04-12T07:31:32.820Z,9.60
2023-04-12T07:33:59.704Z,9.60
2023-04-12T07:36:27.167Z,9.60
2023-04-12T07:38:55.953Z,9.70
2023-04-12T07:41:23.326Z,9.70
2023-04-12T07:43:50.278Z,9.70
2023-04-12T07:46:17.361Z,9.80
2023-04-12T07:48:44.792Z,9.80
2023-04-12T07:51:11.719Z,9.70
2023-04-12T07:53:41.946Z,9.80
2023-04-12T07:56:10.848Z,9.80
2023-04-12T07:58:37.981Z,9.70
2023-04-12T08:01:05.426Z,9.80
2023-04-12T08:03:32.398Z,9.90
2023-04-12T08:05:59.569Z,10.00
2023-04-12T08:08:27.382Z,10.10
2023-04-12T08:10:54.233Z,10.10
2023-04-12T08:13:23.116Z,10.10
2023-04-12T08:15:50.106Z,10.20
2023-04-12T08:18:17.014Z,10.20
2023-04-12T08:20:49.226Z,10.20
2023-04-12T08:23:17.417Z,10.30
2023-04-12T08:25:45.263Z,10.30
2023-04-12T08:28:12.606Z,10.30
2023-04-12T08:30:39.571Z,10.30
2023-04-12T08:33:07.680Z,10.50
2023-04-12T08:35:35.715Z,10.70
2023-04-12T08:38:07.516Z,10.90
2023-04-12T08:40:36.502Z,11.00
2023-04-12T08:43:03.993Z,11.00
2023-04-12T08:45:30.833Z,11.10
2023-04-12T08:47:57.686Z,11.20
2023-04-12T08:50:24.644Z,11.20
2023-04-12T08:52:53.788Z,11.10
2023-04-12T08:55:20.650Z,11.00
2023-04-12T08:57:48.745Z,11.20
2023-04-12T09:00:15.935Z,11.20
2023-04-12T09:02:48.456Z,11.30
2023-04-12T09:05:16.144Z,11.20
2023-04-12T09:07:45.028Z,11.20
2023-04-12T09:10:12.883Z,11.30
2023-04-12T09:12:47.232Z,11.20
2023-04-12T09:15:15.652Z,11.40
2023-04-12T09:17:43.829Z,11.40
2023-04-12T09:20:17.242Z,11.40
2023-04-12T09:22:45.502Z,11.40
2023-04-12T09:25:12.894Z,11.40
2023-04-12T09:27:50.676Z,11.30
2023-04-12T09:30:18.369Z,11.30
2023-04-12T09:32:45.622Z,11.50
2023-04-12T09:35:15.547Z,11.60
2023-04-12T09:37:44.462Z,11.70
2023-04-12T09:40:11.693Z,11.70
2023-04-12T09:42:53.548Z,11.80
2023-04-12T09:45:25.636Z,12.00
2023-04-12T09:47:53.303Z,12.20
2023-04-12T09:50:28.579Z,12.40
2023-04-12T09:52:58.692Z,12.30
2023-04-12T09:55:27.547Z,12.20
2023-04-12T09:57:56.419Z,12.00
2023-04-12T10:00:25.553Z,11.60
2023-04-12T10:02:53.443Z,11.30
2023-04-12T10:05:27.630Z,11.10
2023-04-12T10:07:55.521Z,10.50
2023-04-12T10:10:23.551Z,9.90
2023-04-12T10:12:52.910Z,9.40
2023-04-12T10:15:21.916Z,9.10
2023-04-12T10:17:53.587Z,9.00
2023-04-12T10:20:22.005Z,8.90
2023-04-12T10:22:50.279Z,8.80
2023-04-12T10:25:20.049Z,8.60
2023-04-12T10:27:47.255Z,8.40
2023-04-12T10:30:28.729Z,8.20
2023-04-12T10:33:05.398Z,8.00
2023-04-12T10:35:55.221Z,7.90
2023-04-12T10:38:25.058Z,7.90
2023-04-12T10:41:21.559Z,7.90
2023-04-12T10:43:51.830Z,7.90
2023-04-12T10:46:37.517Z,8.10
2023-04-12T10:49:34.877Z,8.40
2023-04-12T10:52:02.475Z,8.80
2023-04-12T10:54:32.381Z,9.20
2023-04-12T10:56:59.306Z,9.40
2023-04-12T10:59:31.397Z,9.70
2023-04-12T11:02:09.698Z,10.00
2023-04-12T11:04:37.322Z,10.10
2023-04-12T11:07:10.150Z,10.10
2023-04-12T11:09:37.075Z,10.00
2023-04-12T11:12:04.012Z,9.90
2023-04-12T11:14:36.271Z,10.10
2023-04-12T11:17:07.340Z,10.40
2023-04-12T11:19:42.132Z,10.50
2023-04-12T11:22:11.410Z,10.30
2023-04-12T11:24:45.212Z,10.30
2023-04-12T11:27:12.402Z,10.40
2023-04-12T11:29:39.244Z,10.50
2023-04-12T11:32:07.589Z,10.70
2023-04-12T11:34:36.159Z,10.90
2023-04-12T11:37:08.209Z,11.20
2023-04-12T11:39:39.677Z,11.50
2023-04-12T11:42:10.914Z,11.50
2023-04-12T11:44:52.528Z,11.60
2023-04-12T11:47:24.384Z,11.50
2023-04-12T11:49:55.753Z,11.50
2023-04-12T11:52:29.086Z,11.40
2023-04-12T11:54:58.886Z,11.40
2023-04-12T11:57:26.227Z,11.30
2023-04-12T11:59:54.547Z,11.00
2023-04-12T12:02:24.074Z,10.90
2023-04-12T12:04:52.044Z,10.80
2023-04-12T12:07:22.284Z,10.70
2023-04-12T12:09:49.363Z,10.60
2023-04-12T12:12:16.323Z,10.60
2023-04-12T12:14:45.585Z,10.60
2023-04-12T12:17:13.576Z,10.50
2023-04-12T12:19:41.671Z,10.50
2023-04-12T12:22:19.144Z,10.20
2023-04-12T12:24:52.490Z,10.00
2023-04-12T12:27:30.232Z,9.90
2023-04-12T12:30:01.262Z,10.20
2023-04-12T12:32:37.399Z,10.50
2023-04-12T12:35:09.342Z,10.90
2023-04-12T12:37:37.870Z,11.40
2023-04-12T12:40:07.853Z,11.60
2023-04-12T12:42:34.988Z,11.60
2023-04-12T12:45:04.604Z,11.10
2023-04-12T12:47:32.343Z,11.00
2023-04-12T12:49:59.498Z,10.80
2023-04-12T12:52:27.593Z,10.70
2023-04-12T12:54:54.458Z,10.60
2023-04-12T12:57:21.265Z,10.50
2023-04-12T12:59:48.201Z,10.90
2023-04-12T13:02:18.265Z,11.20
2023-04-12T13:04:45.294Z,11.30
2023-04-12T13:07:12.257Z,11.40
2023-04-12T13:09:39.054Z,11.50
2023-04-12T13:12:05.927Z,11.80
2023-04-12T13:14:32.835Z,11.80
2023-04-12T13:16:59.610Z,11.70
2023-04-12T13:19:26.408Z,11.80
2023-04-12T13:21:53.427Z,11.90
2023-04-12T13:24:20.248Z,12.10
2023-04-12T13:26:47.138Z,12.10
2023-04-12T13:29:13.999Z,12.00
2023-04-12T13:31:41.135Z,12.30
2023-04-12T13:34:07.985Z,12.30
2023-04-12T13:36:34.856Z,12.50
2023-04-12T13:39:01.749Z,12.70
2023-04-12T13:41:31.186Z,12.90
2023-04-12T13:43:57.980Z,12.70
2023-04-12T13:46:24.850Z,12.80
2023-04-12T13:48:51.927Z,12.90
2023-04-12T13:51:18.796Z,12.90
2023-04-12T13:53:45.663Z,12.80
2023-04-12T13:56:12.525Z,13.00
2023-04-12T13:58:42.020Z,12.90
2023-04-12T14:01:09.189Z,12.70
2023-04-12T14:03:36.939Z,12.70
2023-04-12T14:06:03.945Z,12.70
2023-04-12T14:08:30.783Z,12.80
2023-04-12T14:10:57.683Z,12.80
2023-04-12T14:13:24.714Z,12.90
2023-04-12T14:15:51.819Z,13.00
2023-04-12T14:18:19.692Z,13.10
2023-04-12T14:20:49.289Z,13.20
2023-04-12T14:23:17.748Z,13.30
2023-04-12T14:25:44.652Z,13.10
2023-04-12T14:28:16.603Z,13.30
2023-04-12T14:30:44.121Z,13.40
2023-04-12T14:33:11.114Z,13.50
2023-04-12T14:35:38.118Z,13.60
2023-04-12T14:38:06.028Z,13.50
2023-04-12T14:40:32.843Z,13.40
2023-04-12T14:42:59.753Z,13.20
2023-04-12T14:45:27.597Z,13.00
2023-04-12T14:47:54.784Z,12.90
2023-04-12T14:50:22.014Z,13.10
2023-04-12T14:52:49.276Z,13.30
2023-04-12T14:55:19.325Z,13.70
2023-04-12T14:57:46.141Z,13.80
2023-04-12T15:00:15.468Z,13.60
2023-04-12T15:02:44.494Z,13.30
2023-04-12T15:05:11.854Z,13.30
2023-04-12T15:07:38.784Z,13.40
2023-04-12T15:10:06.639Z,13.20
2023-04-12T15:12:33.742Z,13.20
2023-04-12T15:15:04.627Z,13.20
2023-04-12T15:17:34.322Z,13.10
2023-04-12T15:20:09.079Z,12.70
2023-04-12T15:22:36.580Z,12.50
2023-04-12T15:25:04.932Z,12.40
2023-04-12T15:27:32.028Z,12.50
2023-04-12T15:29:59.405Z,12.40
2023-04-12T15:32:27.471Z,12.50
2023-04-12T15:35:01.378Z,12.40
2023-04-12T15:37:34.665Z,12.40
2023-04-12T15:40:02.042Z,12.50
2023-04-12T15:42:28.857Z,12.80
2023-04-12T15:44:55.752Z,13.00
2023-04-12T15:47:22.690Z,13.10
2023-04-12T15:49:49.539Z,13.30
2023-04-12T15:52:16.689Z,13.30
2023-04-12T15:54:44.132Z,13.40
2023-04-12T15:57:11.639Z,13.30
2023-04-12T15:59:40.140Z,13.40
2023-04-12T16:02:09.726Z,13.10
2023-04-12T16:04:37.105Z,12.90
2023-04-12T16:07:04.613Z,13.10
2023-04-12T16:09:34.989Z,13.30
2023-04-12T16:12:05.029Z,13.50
2023-04-12T16:14:32.351Z,13.70
2023-04-12T16:16:59.425Z,13.80
2023-04-12T16:19:26.260Z,13.70
2023-04-12T16:21:55.084Z,13.70
2023-04-12T16:24:21.932Z,13.40
2023-04-12T16:26:48.787Z,13.30
2023-04-12T16:29:15.686Z,13.30
2023-04-12T16:31:42.546Z,13.50
2023-04-12T16:34:10.082Z,13.60
2023-04-12T16:36:37.582Z,13.80
2023-04-12T16:39:06.317Z,13.50
2023-04-12T16:41:33.174Z,13.10
2023-04-12T16:44:01.604Z,12.80
2023-04-12T16:46:28.802Z,12.60
2023-04-12T16:48:55.895Z,12.20
2023-04-12T16:51:22.972Z,11.90
2023-04-12T16:53:49.886Z,11.70
2023-04-12T16:56:19.911Z,11.60
2023-04-12T16:58:49.171Z,11.60
2023-04-12T17:01:17.170Z,11.50
2023-04-12T17:03:44.772Z,11.50
2023-04-12T17:06:12.699Z,11.40
2023-04-12T17:08:39.493Z,11.30
2023-04-12T17:11:06.283Z,11.20
2023-04-12T17:13:33.222Z,11.10
2023-04-12T17:16:00.090Z,11.10
2023-04-12T17:18:26.962Z,11.10
2023-04-12T17:20:53.920Z,11.10
2023-04-12T17:23:20.820Z,11.10
2023-04-12T17:25:47.789Z,11.10
2023-04-12T17:28:15.311Z,11.00
2023-04-12T17:30:43.383Z,11.00
2023-04-12T17:33:10.218Z,10.90
2023-04-12T17:35:37.163Z,10.90
2023-04-12T17:38:03.974Z,10.90
2023-04-12T17:40:30.905Z,10.80
2023-04-12T17:42:58.764Z,10.70
2023-04-12T17:45:25.777Z,10.70
2023-04-12T17:47:54.658Z,10.80
2023-04-12T17:50:22.360Z,10.70
2023-04-12T17:52:49.265Z,10.70
2023-04-12T17:55:19.413Z,10.80
2023-04-12T17:57:46.484Z,10.70
2023-04-12T18:00:14.319Z,10.70
2023-04-12T18:02:43.118Z,10.60
2023-04-12T18:05:10.405Z,10.60
2023-04-12T18:07:39.829Z,10.50
2023-04-12T18:10:08.236Z,10.50
2023-04-12T18:12:35.126Z,10.50
2023-04-12T18:15:03.527Z,10.50
2023-04-12T18:17:30.533Z,10.50
2023-04-12T18:19:57.377Z,10.50
2023-04-12T18:22:24.182Z,10.50
2023-04-12T18:24:51.050Z,10.40
2023-04-12T18:27:17.842Z,10.40
2023-04-12T18:29:44.866Z,10.40
2023-04-12T18:32:11.985Z,10.40
2023-04-12T18:34:38.804Z,10.40
2023-04-12T18:37:06.682Z,10.40
2023-04-12T18:39:35.545Z,10.40
2023-04-12T18:42:02.833Z,10.40
2023-04-12T18:44:30.093Z,10.40
2023-04-12T18:46:56.968Z,10.30
2023-04-12T18:49:24.292Z,10.30
2023-04-12T18:51:53.196Z,10.40
2023-04-12T18:54:20.215Z,10.40
2023-04-12T18:56:47.045Z,10.40
2023-04-12T18:59:17.617Z,10.40
2023-04-12T19:01:45.415Z,10.30
2023-04-12T19:04:12.744Z,10.30
2023-04-12T19:06:39.644Z,10.20
2023-04-12T19:09:06.618Z,10.20
2023-04-12T19:11:36.276Z,10.10
2023-04-12T19:14:03.842Z,10.10
2023-04-12T19:16:30.976Z,10.10
2023-04-12T19:19:00.051Z,10.10
2023-04-12T19:21:29.242Z,10.10
2023-04-12T19:23:56.697Z,10.20
2023-04-12T19:26:23.843Z,10.20
2023-04-12T19:28:55.749Z,10.20
2023-04-12T19:31:23.826Z,10.20
2023-04-12T19:33:50.964Z,10.00
2023-04-12T19:36:17.804Z,10.00
2023-04-12T19:38:47.411Z,9.90
2023-04-12T19:41:16.178Z,9.60
2023-04-12T19:43:43.202Z,9.30
2023-04-12T19:46:10.192Z,9.10
2023-04-12T19:48:37.840Z,9.00
2023-04-12T19:51:05.931Z,8.90
2023-04-12T19:53:33.457Z,8.90
2023-04-12T19:56:01.112Z,8.90
2023-04-12T19:58:27.902Z,8.70
2023-04-12T20:00:55.733Z,8.70
2023-04-12T20:03:23.511Z,8.60
2023-04-12T20:05:50.992Z,8.50
2023-04-12T20:08:17.839Z,8.50
2023-04-12T20:10:44.686Z,8.40
2023-04-12T20:13:15.353Z,8.20
2023-04-12T20:15:43.367Z,8.00
2023-04-12T20:18:12.972Z,7.70
2023-04-12T20:20:39.937Z,7.50
2023-04-12T20:23:07.029Z,7.40
2023-04-12T20:25:37.784Z,7.40
2023-04-12T20:28:04.741Z,7.40
2023-04-12T20:30:31.960Z,7.40
2023-04-12T20:33:00.912Z,7.30
2023-04-12T20:35:28.082Z,7.40
2023-04-12T20:37:55.088Z,7.40
2023-04-12T20:40:23.368Z,7.40
2023-04-12T20:42:50.302Z,7.40
2023-04-12T20:45:18.807Z,7.30
2023-04-12T20:47:46.663Z,7.40
2023-04-12T20:50:15.584Z,7.30
2023-04-12T20:52:44.559Z,7.30
2023-04-12T20:55:11.819Z,7.30
2023-04-12T20:57:38.760Z,7.20
2023-04-12T21:00:17.389Z,7.20
2023-04-12T21:02:45.924Z,7.20
2023-04-12T21:05:14.871Z,7.20
2023-04-12T21:07:41.700Z,7.10
2023-04-12T21:10:14.774Z,7.10
2023-04-12T21:12:42.674Z,7.10
2023-04-12T21:15:11.763Z,7.10
2023-04-12T21:17:38.761Z,7.10
2023-04-12T21:20:16.764Z,7.10
2023-04-12T21:22:44.195Z,7.10
2023-04-12T21:25:13.830Z,7.10
2023-04-12T21:27:43.726Z,7.10
2023-04-12T21:30:14.134Z,7.20
2023-04-12T21:32:42.755Z,7.20
2023-04-12T21:35:11.107Z,7.20
2023-04-12T21:37:39.068Z,7.20
2023-04-12T21:40:10.920Z,7.20
2023-04-12T21:42:38.077Z,7.20
2023-04-12T21:45:06.871Z,7.20
2023-04-12T21:47:33.960Z,7.20
2023-04-12T21:50:00.770Z,7.20
2023-04-12T21:52:27.660Z,7.10
2023-04-12T21:54:55.605Z,7.10
2023-04-12T21:57:22.455Z,7.10
2023-04-12T21:59:49.351Z,7.10
2023-04-12T22:02:16.236Z,7.10
2023-04-12T22:04:43.673Z,7.10
2023-04-12T22:07:12.710Z,7.10
2023-04-12T22:09:40.325Z,7.00
2023-04-12T22:12:07.518Z,7.00
2023-04-12T22:14:35.121Z,7.10
2023-04-12T22:17:04.205Z,7.10
2023-04-12T22:19:31.178Z,7.20
2023-04-12T22:21:58.018Z,7.20
2023-04-12T22:24:26.060Z,7.20
2023-04-12T22:26:56.310Z,7.30
2023-04-12T22:29:24.535Z,7.30
2023-04-12T22:31:51.345Z,7.40
2023-04-12T22:34:18.184Z,7.40
2023-04-12T22:36:46.697Z,7.50
2023-04-12T22:39:16.346Z,7.50
2023-04-12T22:41:43.136Z,7.50
2023-04-12T22:44:10.598Z,7.50
2023-04-12T22:46:39.388Z,7.60
2023-04-12T22:49:07.782Z,7.60
2023-04-12T22:51:34.609Z,7.60
2023-04-12T22:54:02.772Z,7.70
2023-04-12T22:56:32.493Z,7.70
2023-04-12T22:58:59.649Z,7.70
2023-04-12T23:01:26.497Z,7.80
2023-04-12T23:03:54.212Z,7.90
2023-04-12T23:06:21.812Z,7.90
2023-04-12T23:08:49.674Z,7.80
2023-04-12T23:11:16.649Z,7.80
2023-04-12T23:13:43.524Z,7.80
2023-04-12T23:16:10.432Z,7.80
2023-04-12T23:18:37.813Z,7.90
2023-04-12T23:21:04.963Z,7.90
2023-04-12T23:23:31.879Z,8.00
2023-04-12T23:25:59.496Z,8.00
2023-04-12T23:28:26.716Z,8.10
2023-04-12T23:30:53.984Z,8.20
2023-04-12T23:33:21.322Z,8.20
2023-04-12T23:35:58.785Z,8.20
2023-04-12T23:38:32.407Z,8.20
2023-04-12T23:41:04.103Z,8.20
2023-04-12T23:43:32.511Z,8.20
2023-04-12T23:45:59.357Z,8.20
2023-04-12T23:48:26.218Z,8.10
2023-04-12T23:50:53.303Z,8.10
2023-04-12T23:53:20.565Z,8.20
2023-04-12T23:55:51.101Z,8.20
2023-04-12T23:58:19.636Z,8.20
